Feasterville Trevose, Pennsylvania
Current Conditions -  °F | °C
As of 11:54 PM on Tuesday 25 Nov 2014 (Local Time) from KPNE Reporting Station
Few Clouds Few Clouds  
Wind Chill: 47°   Ceiling: Unl
Heat Index: 47°   Visibility: 10mi
Dew Point: 32°   Wind: 0mph
Humidity: 56%   Direction: NA
Pressure: 30.18"   Gusts: NA
Location:  40.15°N, 74.98°W
Report Text: KPNE 260454Z 00000KT 10SM FEW120 08/00 A3018 RMK AO2 SLP221 T00830000 402060083 $
Loading
Personal Weather Stations






























Interactive Weather Map New forecast layout! Learn more

10-Day Weather Forecast

Advertisements
Track Severe Weather on mobile